createdAt,value
2022-10-19T00:01:26.183Z,7.88
2022-10-19T00:03:54.399Z,9.40
2022-10-19T00:06:25.521Z,10.88
2022-10-19T00:08:53.586Z,11.90
2022-10-19T00:11:21.210Z,11.43
2022-10-19T00:13:48.938Z,12.98
2022-10-19T00:16:17.429Z,13.07
2022-10-19T00:18:46.221Z,13.93
2022-10-19T00:21:14.993Z,13.05
2022-10-19T00:23:42.444Z,14.82
2022-10-19T00:26:09.934Z,15.32
2022-10-19T00:28:37.486Z,15.07
2022-10-19T00:31:05.676Z,14.23
2022-10-19T00:33:37.566Z,14.57
2022-10-19T00:36:07.365Z,14.15
2022-10-19T00:38:34.902Z,13.77
2022-10-19T00:41:03.450Z,12.27
2022-10-19T00:43:31.816Z,13.07
2022-10-19T00:45:59.222Z,11.80
2022-10-19T00:48:28.413Z,10.90
2022-10-19T00:50:57.169Z,11.68
2022-10-19T00:53:27.276Z,10.68
2022-10-19T00:55:55.078Z,10.45
2022-10-19T00:58:22.620Z,11.18
2022-10-19T01:00:50.213Z,12.68
2022-10-19T01:03:17.681Z,12.77
2022-10-19T01:05:45.384Z,14.02
2022-10-19T01:08:13.280Z,15.73
2022-10-19T01:10:46.132Z,14.82
2022-10-19T01:13:20.506Z,17.08
2022-10-19T01:18:22.012Z,14.00
2022-10-19T01:21:04.715Z,14.23
2022-10-19T01:23:39.701Z,14.77
2022-10-19T01:26:15.271Z,13.32
2022-10-19T01:28:46.522Z,13.43
2022-10-19T01:31:21.656Z,12.45
2022-10-19T01:33:55.425Z,12.73
2022-10-19T01:36:24.923Z,13.15
2022-10-19T01:38:54.547Z,11.93
2022-10-19T01:41:26.235Z,12.32
2022-10-19T01:43:56.954Z,11.82
2022-10-19T01:46:28.588Z,12.68
2022-10-19T01:48:59.608Z,12.15
2022-10-19T01:51:28.640Z,12.60
2022-10-19T01:53:58.221Z,12.40
2022-10-19T01:56:27.087Z,11.73
2022-10-19T01:58:56.089Z,12.10
2022-10-19T02:01:25.078Z,11.45
2022-10-19T02:03:54.493Z,11.65
2022-10-19T02:06:21.933Z,12.07
2022-10-19T02:08:53.044Z,13.30
2022-10-19T02:11:21.778Z,13.73
2022-10-19T02:13:50.908Z,11.77
2022-10-19T02:16:21.247Z,12.68
2022-10-19T02:18:51.541Z,12.20
2022-10-19T02:21:20.700Z,13.63
2022-10-19T02:23:49.403Z,14.05
2022-10-19T02:26:19.526Z,13.50
2022-10-19T02:28:47.051Z,13.68
2022-10-19T02:31:14.864Z,12.90
2022-10-19T02:33:47.522Z,13.70
2022-10-19T02:36:15.453Z,14.07
2022-10-19T02:38:44.395Z,13.48
2022-10-19T02:41:14.905Z,12.63
2022-10-19T02:43:43.763Z,12.50
2022-10-19T02:46:12.847Z,13.40
2022-10-19T02:48:40.762Z,11.75
2022-10-19T02:51:08.169Z,12.35
2022-10-19T02:53:35.640Z,12.98
2022-10-19T02:56:04.608Z,11.07
2022-10-19T02:58:32.116Z,11.98
2022-10-19T03:00:59.592Z,13.55
2022-10-19T03:03:27.078Z,11.95
2022-10-19T03:05:56.366Z,11.65
2022-10-19T03:08:23.861Z,12.13
2022-10-19T03:10:52.976Z,12.20
2022-10-19T03:13:21.757Z,12.18
2022-10-19T03:15:49.472Z,12.32
2022-10-19T03:18:18.278Z,11.63
2022-10-19T03:20:45.779Z,12.18
2022-10-19T03:23:13.320Z,12.43
2022-10-19T03:25:40.718Z,11.65
2022-10-19T03:28:08.238Z,12.52
2022-10-19T03:30:37.101Z,12.57
2022-10-19T03:33:04.519Z,11.93
2022-10-19T03:35:31.943Z,10.85
2022-10-19T03:37:59.410Z,10.52
2022-10-19T03:40:26.828Z,10.48
2022-10-19T03:42:54.287Z,11.48
2022-10-19T03:45:22.101Z,11.32
2022-10-19T03:47:51.940Z,12.73
2022-10-19T03:50:21.135Z,13.07
2022-10-19T03:52:49.496Z,12.65
2022-10-19T03:55:17.554Z,13.38
2022-10-19T03:57:44.999Z,12.00
2022-10-19T04:00:13.301Z,14.80
2022-10-19T04:02:40.927Z,14.95
2022-10-19T04:05:10.402Z,13.95
2022-10-19T04:07:37.956Z,14.25
2022-10-19T04:10:05.747Z,12.20
2022-10-19T04:12:34.117Z,12.18
2022-10-19T04:15:01.619Z,11.80
2022-10-19T04:17:29.032Z,11.38
2022-10-19T04:19:56.490Z,12.13
2022-10-19T04:22:25.306Z,12.07
2022-10-19T04:24:52.904Z,11.65
2022-10-19T04:27:20.415Z,12.43
2022-10-19T04:29:47.810Z,12.82
2022-10-19T04:32:15.263Z,12.25
2022-10-19T04:34:42.630Z,11.90
2022-10-19T04:37:10.314Z,12.40
2022-10-19T04:39:41.076Z,12.98
2022-10-19T04:42:08.645Z,13.40
2022-10-19T04:44:36.114Z,12.73
2022-10-19T04:47:03.638Z,12.50
2022-10-19T04:49:31.141Z,12.57
2022-10-19T04:51:58.666Z,12.93
2022-10-19T04:54:26.251Z,12.73
2022-10-19T04:56:55.099Z,13.07
2022-10-19T04:59:22.579Z,13.30
2022-10-19T05:01:50.119Z,13.45
2022-10-19T05:04:17.567Z,13.55
2022-10-19T05:06:46.787Z,13.77
2022-10-19T05:09:14.298Z,14.15
2022-10-19T05:11:41.729Z,14.30
2022-10-19T05:14:10.601Z,14.30
2022-10-19T05:16:38.089Z,14.05
2022-10-19T05:19:05.473Z,13.15
2022-10-19T05:21:33.231Z,13.00
2022-10-19T05:24:00.746Z,13.77
2022-10-19T05:26:32.528Z,14.52
2022-10-19T05:29:04.356Z,13.88
2022-10-19T05:31:34.029Z,14.38
2022-10-19T05:34:03.147Z,13.65
2022-10-19T05:36:34.409Z,14.93
2022-10-19T05:39:02.855Z,15.55
2022-10-19T05:41:30.337Z,15.02
2022-10-19T05:43:58.617Z,14.48
2022-10-19T05:46:26.939Z,14.25
2022-10-19T05:48:56.117Z,14.70
2022-10-19T05:51:24.186Z,15.95
2022-10-19T05:53:51.756Z,13.50
2022-10-19T05:56:20.050Z,15.20
2022-10-19T05:58:47.458Z,15.80
2022-10-19T06:01:15.617Z,15.38
2022-10-19T06:03:43.170Z,14.65
2022-10-19T06:06:12.272Z,13.23
2022-10-19T06:08:40.058Z,13.15
2022-10-19T06:11:08.528Z,13.98
2022-10-19T06:13:36.220Z,14.20
2022-10-19T06:16:03.734Z,15.10
2022-10-19T06:18:31.212Z,13.73
2022-10-19T06:21:02.396Z,13.60
2022-10-19T06:23:31.347Z,14.65
2022-10-19T06:25:58.854Z,13.70
2022-10-19T06:28:26.276Z,14.25
2022-10-19T06:30:53.824Z,13.45
2022-10-19T06:33:21.290Z,13.95
2022-10-19T06:35:52.291Z,13.30
2022-10-19T06:38:19.854Z,14.55
2022-10-19T06:41:07.947Z,13.27
2022-10-19T06:43:36.995Z,13.07
2022-10-19T06:46:05.254Z,13.00
2022-10-19T06:48:32.820Z,13.88
2022-10-19T06:51:01.179Z,12.38
2022-10-19T06:53:29.147Z,12.85
2022-10-19T06:55:58.133Z,12.00
2022-10-19T06:58:26.247Z,12.48
2022-10-19T07:00:58.275Z,11.98
2022-10-19T07:03:25.927Z,11.10
2022-10-19T07:05:53.994Z,11.18
2022-10-19T07:08:21.473Z,11.00
2022-10-19T07:10:50.730Z,11.27
2022-10-19T07:13:18.167Z,11.18
2022-10-19T07:15:45.627Z,10.48
2022-10-19T07:18:14.651Z,10.50
2022-10-19T07:20:42.170Z,10.52
2022-10-19T07:23:09.680Z,10.30
2022-10-19T07:25:37.705Z,10.52
2022-10-19T07:28:05.285Z,10.57
2022-10-19T07:30:32.727Z,10.57
2022-10-19T07:33:00.193Z,10.07
2022-10-19T07:35:29.349Z,10.10
2022-10-19T07:37:56.796Z,10.88
2022-10-19T07:40:24.328Z,9.32
2022-10-19T07:42:51.964Z,9.35
2022-10-19T07:45:19.399Z,9.45
2022-10-19T07:47:46.888Z,10.35
2022-10-19T07:50:14.450Z,9.38
2022-10-19T07:52:43.594Z,8.95
2022-10-19T07:55:11.362Z,8.73
2022-10-19T07:57:39.486Z,8.82
2022-10-19T08:00:08.838Z,8.32
2022-10-19T08:02:54.678Z,8.30
2022-10-19T08:05:23.819Z,7.22
2022-10-19T08:07:52.634Z,7.80
2022-10-19T08:10:20.134Z,7.72
2022-10-19T08:12:47.607Z,7.60
2022-10-19T08:15:15.128Z,8.02
2022-10-19T08:17:42.636Z,7.50
2022-10-19T08:20:13.156Z,7.18
2022-10-19T08:22:41.836Z,6.53
2022-10-19T08:25:10.931Z,6.22
2022-10-19T08:27:38.455Z,5.93
2022-10-19T08:30:06.244Z,5.00
2022-10-19T08:32:33.892Z,4.80
2022-10-19T08:35:01.572Z,4.45
2022-10-19T08:37:44.084Z,5.20
2022-10-19T08:40:18.748Z,4.55
2022-10-19T08:42:51.674Z,3.67
2022-10-19T08:45:33.318Z,2.95
2022-10-19T08:48:04.330Z,3.28
2022-10-19T08:50:36.263Z,3.75
2022-10-19T08:53:05.322Z,3.53
2022-10-19T08:55:39.607Z,3.28
2022-10-19T08:58:11.362Z,3.15
2022-10-19T09:00:42.350Z,3.30
2022-10-19T09:03:23.120Z,3.38
2022-10-19T09:06:12.859Z,3.38
2022-10-19T09:08:41.033Z,2.85
2022-10-19T09:11:11.528Z,2.72
2022-10-19T09:14:00.543Z,3.00
2022-10-19T09:16:29.220Z,2.80
2022-10-19T09:18:56.882Z,2.70
2022-10-19T09:21:31.059Z,2.60
2022-10-19T09:24:06.223Z,4.07
2022-10-19T09:26:38.181Z,2.97
2022-10-19T09:29:08.479Z,3.00
2022-10-19T09:31:40.740Z,2.97
2022-10-19T09:34:13.847Z,2.83
2022-10-19T09:36:50.141Z,3.10
2022-10-19T09:39:18.830Z,2.67
2022-10-19T09:41:48.323Z,2.72
2022-10-19T09:44:16.738Z,3.28
2022-10-19T09:46:48.676Z,3.22
2022-10-19T09:49:16.194Z,3.10
2022-10-19T09:52:29.996Z,3.63
2022-10-19T09:58:06.707Z,3.08
2022-10-19T10:00:35.725Z,3.03
2022-10-19T10:03:07.060Z,3.00
2022-10-19T10:05:35.990Z,2.90
2022-10-19T10:08:14.255Z,3.20
2022-10-19T10:10:44.684Z,3.88
2022-10-19T10:13:15.914Z,3.28
2022-10-19T10:15:44.697Z,4.30
2022-10-19T10:18:16.168Z,4.47
2022-10-19T10:21:00.655Z,4.00
2022-10-19T10:23:29.520Z,3.90
2022-10-19T10:26:03.614Z,4.45
2022-10-19T10:28:46.972Z,4.55
2022-10-19T10:31:20.963Z,4.40
2022-10-19T10:36:27.256Z,3.53
2022-10-19T10:38:58.642Z,3.60
2022-10-19T10:41:29.051Z,3.70
2022-10-19T10:44:08.059Z,3.42
2022-10-19T10:46:36.111Z,2.97
2022-10-19T10:49:04.573Z,3.38
2022-10-19T10:51:39.022Z,3.50
2022-10-19T10:54:19.918Z,2.83
2022-10-19T10:57:00.871Z,2.90
2022-10-19T10:59:34.653Z,2.63
2022-10-19T11:02:03.334Z,2.50
2022-10-19T11:04:46.371Z,2.72
2022-10-19T11:07:25.560Z,2.30
2022-10-19T11:09:54.599Z,2.50
2022-10-19T11:12:34.289Z,2.60
2022-10-19T11:15:07.209Z,3.00
2022-10-19T11:17:37.866Z,2.70
2022-10-19T11:20:06.837Z,2.55
2022-10-19T11:22:37.076Z,2.60
2022-10-19T11:25:17.713Z,2.83
2022-10-19T11:27:48.780Z,3.22
2022-10-19T11:30:18.971Z,2.40
2022-10-19T11:32:50.943Z,2.72
2022-10-19T11:35:33.297Z,2.47
2022-10-19T11:38:19.646Z,2.85
2022-10-19T11:41:13.194Z,2.80
2022-10-19T11:43:45.279Z,2.92
2022-10-19T11:46:18.395Z,3.08
2022-10-19T11:48:57.724Z,2.78
2022-10-19T11:51:29.012Z,2.88
2022-10-19T11:54:05.142Z,2.50
2022-10-19T11:56:58.188Z,2.85
2022-10-19T11:59:28.809Z,2.75
2022-10-19T12:02:02.095Z,3.13
2022-10-19T12:04:47.778Z,2.70
2022-10-19T12:07:21.106Z,3.25
2022-10-19T12:09:51.074Z,3.13
2022-10-19T12:12:24.953Z,3.33
2022-10-19T12:14:54.393Z,2.85
2022-10-19T12:17:25.251Z,2.90
2022-10-19T12:19:54.966Z,3.30
2022-10-19T12:22:24.752Z,2.83
2022-10-19T12:24:55.355Z,2.92
2022-10-19T12:27:27.713Z,3.53
2022-10-19T12:30:07.794Z,3.13
2022-10-19T12:32:40.899Z,3.38
2022-10-19T12:35:17.270Z,3.03
2022-10-19T12:37:46.093Z,2.90
2022-10-19T12:40:20.087Z,2.50
2022-10-19T12:42:51.884Z,2.80
2022-10-19T12:45:28.459Z,2.67
2022-10-19T12:48:15.697Z,2.40
2022-10-19T12:51:13.195Z,2.60
2022-10-19T12:53:44.256Z,3.00
2022-10-19T12:56:16.883Z,2.92
2022-10-19T12:58:53.019Z,2.40
2022-10-19T13:01:22.122Z,2.60
2022-10-19T13:03:54.016Z,2.50
2022-10-19T13:06:31.873Z,2.67
2022-10-19T13:09:02.520Z,2.55
2022-10-19T13:11:30.114Z,2.33
2022-10-19T13:13:58.889Z,2.10
2022-10-19T13:16:44.058Z,2.30
2022-10-19T13:19:26.355Z,2.20
2022-10-19T13:21:55.260Z,1.85
2022-10-19T13:24:37.746Z,2.33
2022-10-19T13:27:41.144Z,2.10
2022-10-19T13:30:33.983Z,2.10
2022-10-19T13:33:27.035Z,2.33
2022-10-19T13:36:06.923Z,2.50
2022-10-19T13:41:10.002Z,2.45
2022-10-19T13:43:40.438Z,2.70
2022-10-19T13:46:10.349Z,2.50
2022-10-19T13:48:59.103Z,2.75
2022-10-19T13:51:29.555Z,2.67
2022-10-19T13:54:04.113Z,2.60
2022-10-19T13:56:40.108Z,2.95
2022-10-19T13:59:28.755Z,2.70
2022-10-19T14:02:09.363Z,2.83
2022-10-19T14:04:42.938Z,2.95
2022-10-19T14:07:14.500Z,3.17
2022-10-19T14:09:49.605Z,3.13
2022-10-19T14:12:19.678Z,2.92
2022-10-19T14:14:48.842Z,2.90
2022-10-19T14:19:48.491Z,3.00
2022-10-19T14:22:20.331Z,2.70
2022-10-19T14:24:47.893Z,3.10
2022-10-19T14:27:19.189Z,3.17
2022-10-19T14:29:47.985Z,3.20
2022-10-19T14:32:15.495Z,2.95
2022-10-19T14:34:45.687Z,3.10
2022-10-19T14:37:20.857Z,3.00
2022-10-19T14:40:06.220Z,3.30
2022-10-19T14:42:42.473Z,2.83
2022-10-19T14:45:13.171Z,2.80
2022-10-19T14:47:52.117Z,2.85
2022-10-19T14:50:19.976Z,3.15
2022-10-19T14:52:48.951Z,3.30
2022-10-19T14:55:18.296Z,2.95
2022-10-19T14:57:47.479Z,2.95
2022-10-19T15:00:18.092Z,3.10
2022-10-19T15:02:47.154Z,3.38
2022-10-19T15:05:18.480Z,3.40
2022-10-19T15:07:46.827Z,3.40
2022-10-19T15:10:21.198Z,3.38
2022-10-19T15:12:50.258Z,3.33
2022-10-19T15:15:20.035Z,3.22
2022-10-19T15:17:52.379Z,3.20
2022-10-19T15:20:27.626Z,3.40
2022-10-19T15:22:57.770Z,3.97
2022-10-19T15:25:28.867Z,4.07
2022-10-19T15:27:57.587Z,3.88
2022-10-19T15:30:26.615Z,4.20
2022-10-19T15:32:57.190Z,4.47
2022-10-19T15:35:28.148Z,4.35
2022-10-19T15:38:00.638Z,4.50
2022-10-19T15:40:33.493Z,5.05
2022-10-19T15:43:00.914Z,4.30
2022-10-19T15:45:29.334Z,4.57
2022-10-19T15:48:13.997Z,4.72
2022-10-19T15:50:43.595Z,5.30
2022-10-19T15:53:11.155Z,5.38
2022-10-19T15:55:39.936Z,5.43
2022-10-19T15:58:07.397Z,5.18
2022-10-19T16:00:34.912Z,4.72
2022-10-19T16:03:02.347Z,4.82
2022-10-19T16:05:30.276Z,5.25
2022-10-19T16:07:57.741Z,5.18
2022-10-19T16:10:26.637Z,5.18
2022-10-19T16:12:55.493Z,5.13
2022-10-19T16:15:23.795Z,5.50
2022-10-19T16:17:52.253Z,5.32
2022-10-19T16:20:19.771Z,5.40
2022-10-19T16:22:47.482Z,5.50
2022-10-19T16:25:15.280Z,5.50
2022-10-19T16:27:42.801Z,5.75
2022-10-19T16:30:12.334Z,6.38
2022-10-19T16:35:10.220Z,5.45
2022-10-19T16:37:38.067Z,5.50
2022-10-19T16:40:06.158Z,5.35
2022-10-19T16:42:35.089Z,6.35
2022-10-19T16:45:02.948Z,5.80
2022-10-19T16:47:31.772Z,8.32
2022-10-19T16:50:00.787Z,22.00
2022-10-19T16:52:34.735Z,15.75
2022-10-19T16:55:02.523Z,7.95
2022-10-19T16:57:30.045Z,6.57
2022-10-19T16:59:57.511Z,6.55
2022-10-19T17:02:24.955Z,6.72
2022-10-19T17:04:53.780Z,6.43
2022-10-19T17:07:21.245Z,6.82
2022-10-19T17:09:52.295Z,7.30
2022-10-19T17:12:22.043Z,6.40
2022-10-19T17:14:51.216Z,6.72
2022-10-19T17:17:18.754Z,6.82
2022-10-19T17:19:46.366Z,6.82
2022-10-19T17:22:15.212Z,6.18
2022-10-19T17:24:47.677Z,6.32
2022-10-19T17:27:15.180Z,6.18
2022-10-19T17:29:42.702Z,7.28
2022-10-19T17:32:10.151Z,6.50
2022-10-19T17:34:37.647Z,6.95
2022-10-19T17:37:05.153Z,6.90
2022-10-19T17:39:33.989Z,6.65
2022-10-19T17:42:03.242Z,7.07
2022-10-19T17:44:31.469Z,7.60
2022-10-19T17:46:59.142Z,7.55
2022-10-19T17:49:26.620Z,7.38
2022-10-19T17:51:54.093Z,7.38
2022-10-19T17:54:21.614Z,7.28
2022-10-19T17:56:50.415Z,7.28
2022-10-19T17:59:22.618Z,7.00
2022-10-19T18:01:57.177Z,7.30
2022-10-19T18:04:24.660Z,7.55
2022-10-19T18:06:52.319Z,8.15
2022-10-19T18:09:19.785Z,8.95
2022-10-19T18:11:47.335Z,8.70
2022-10-19T18:14:16.495Z,9.00
2022-10-19T18:16:45.333Z,9.20
2022-10-19T18:19:13.303Z,11.30
2022-10-19T18:21:41.414Z,11.70
2022-10-19T18:24:12.771Z,10.90
2022-10-19T18:26:42.724Z,10.93
2022-10-19T18:29:11.732Z,11.70
2022-10-19T18:31:41.085Z,11.52
2022-10-19T18:34:09.369Z,11.55
2022-10-19T18:36:36.808Z,11.55
2022-10-19T18:39:05.315Z,12.85
2022-10-19T18:41:33.012Z,11.43
2022-10-19T18:44:01.400Z,11.15
2022-10-19T18:46:32.462Z,11.15
2022-10-19T18:49:01.749Z,10.63
2022-10-19T18:51:29.697Z,11.20
2022-10-19T18:53:57.242Z,10.70
2022-10-19T18:56:24.830Z,10.82
2022-10-19T18:58:52.768Z,10.95
2022-10-19T19:01:22.870Z,11.85
2022-10-19T19:03:51.299Z,10.80
2022-10-19T19:06:21.075Z,10.98
2022-10-19T19:08:48.801Z,11.40
2022-10-19T19:11:17.332Z,11.05
2022-10-19T19:13:48.480Z,10.93
2022-10-19T19:16:15.999Z,12.82
2022-10-19T19:18:43.769Z,11.48
2022-10-19T19:21:14.628Z,11.43
2022-10-19T19:23:43.495Z,11.40
2022-10-19T19:26:12.778Z,11.73
2022-10-19T19:28:41.810Z,11.15
2022-10-19T19:31:11.634Z,10.35
2022-10-19T19:33:39.186Z,11.60
2022-10-19T19:36:07.185Z,11.82
2022-10-19T19:38:34.575Z,11.15
2022-10-19T19:41:05.635Z,11.02
2022-10-19T19:43:33.426Z,11.18
2022-10-19T19:46:04.554Z,11.82
2022-10-19T19:48:35.616Z,11.25
2022-10-19T19:51:03.735Z,10.30
2022-10-19T19:53:31.260Z,11.77
2022-10-19T19:55:58.735Z,11.00
2022-10-19T19:58:27.590Z,10.45
2022-10-19T20:00:57.045Z,10.50
2022-10-19T20:03:24.526Z,10.18
2022-10-19T20:05:52.017Z,10.85
2022-10-19T20:08:19.497Z,10.85
2022-10-19T20:10:46.953Z,11.70
2022-10-19T20:13:14.441Z,10.55
2022-10-19T20:15:43.293Z,11.90
2022-10-19T20:18:10.833Z,12.40
2022-10-19T20:20:38.362Z,12.80
2022-10-19T20:23:05.809Z,13.57
2022-10-19T20:25:36.950Z,12.32
2022-10-19T20:28:05.325Z,12.35
2022-10-19T20:30:32.772Z,12.45
2022-10-19T20:33:01.605Z,12.18
2022-10-19T20:35:29.151Z,12.73
2022-10-19T20:37:58.534Z,11.75
2022-10-19T20:40:26.108Z,11.02
2022-10-19T20:42:53.565Z,11.13
2022-10-19T20:45:21.040Z,12.32
2022-10-19T20:47:48.492Z,11.00
2022-10-19T20:50:20.607Z,11.10
2022-10-19T20:52:49.445Z,11.38
2022-10-19T20:55:17.049Z,12.02
2022-10-19T20:57:44.506Z,11.15
2022-10-19T21:00:12.554Z,11.90
2022-10-19T21:02:40.029Z,11.77
2022-10-19T21:05:08.109Z,11.52
2022-10-19T21:07:36.890Z,11.20
2022-10-19T21:10:04.475Z,11.13
2022-10-19T21:12:31.916Z,12.05
2022-10-19T21:14:59.382Z,11.85
2022-10-19T21:17:26.852Z,11.80
2022-10-19T21:19:57.217Z,12.05
2022-10-19T21:22:24.914Z,12.50
2022-10-19T21:24:53.850Z,11.65
2022-10-19T21:27:21.263Z,11.50
2022-10-19T21:29:48.664Z,11.85
2022-10-19T21:32:17.965Z,11.30
2022-10-19T21:34:45.381Z,10.73
2022-10-19T21:37:12.851Z,10.85
2022-10-19T21:39:40.278Z,11.98
2022-10-19T21:42:09.091Z,10.93
2022-10-19T21:44:36.574Z,10.48
2022-10-19T21:47:03.983Z,11.50
2022-10-19T21:49:31.353Z,11.85
2022-10-19T21:51:58.812Z,11.57
2022-10-19T21:54:26.462Z,11.20
2022-10-19T21:56:55.704Z,11.05
2022-10-19T21:59:25.610Z,11.45
2022-10-19T22:01:54.547Z,10.93
2022-10-19T22:04:22.332Z,10.80
2022-10-19T22:06:49.774Z,10.93
2022-10-19T22:09:18.731Z,11.35
2022-10-19T22:11:46.444Z,11.52
2022-10-19T22:14:14.517Z,11.70
2022-10-19T22:16:43.341Z,11.13
2022-10-19T22:19:11.097Z,11.38
2022-10-19T22:24:07.059Z,11.25
2022-10-19T22:26:35.347Z,10.77
2022-10-19T22:29:03.183Z,10.48
2022-10-19T22:31:31.405Z,9.93
2022-10-19T22:34:00.595Z,12.55
2022-10-19T22:36:28.110Z,10.05
2022-10-19T22:38:56.030Z,11.48
2022-10-19T22:41:23.488Z,11.00
2022-10-19T22:43:50.902Z,10.20
2022-10-19T22:46:18.352Z,10.73
2022-10-19T22:48:45.782Z,9.98
2022-10-19T22:51:14.608Z,9.85
2022-10-19T22:53:42.189Z,9.80
2022-10-19T22:56:11.390Z,10.10
2022-10-19T22:58:38.890Z,10.32
2022-10-19T23:01:07.170Z,10.77
2022-10-19T23:03:34.686Z,10.07
2022-10-19T23:06:02.401Z,10.80
2022-10-19T23:08:31.167Z,10.10
2022-10-19T23:10:58.639Z,10.75
2022-10-19T23:13:26.066Z,11.13
2022-10-19T23:15:53.487Z,11.35
2022-10-19T23:18:20.989Z,11.02
2022-10-19T23:20:55.150Z,10.20
2022-10-19T23:23:22.644Z,9.95
2022-10-19T23:26:01.567Z,10.80
2022-10-19T23:28:29.273Z,10.77
2022-10-19T23:30:58.394Z,10.13
2022-10-19T23:33:26.116Z,10.55
2022-10-19T23:35:53.718Z,10.07
2022-10-19T23:38:21.099Z,10.63
2022-10-19T23:40:48.594Z,11.88
2022-10-19T23:43:17.401Z,9.90
2022-10-19T23:45:46.029Z,10.25
2022-10-19T23:48:13.433Z,10.63
2022-10-19T23:50:40.772Z,10.23
2022-10-19T23:53:08.189Z,10.45
2022-10-19T23:55:35.579Z,10.30
2022-10-19T23:58:03.047Z,11.38
